createdAt,value
2018-06-25T00:02:20.729Z,99.90
2018-06-25T00:04:54.501Z,99.90
2018-06-25T00:07:28.387Z,99.90
2018-06-25T00:10:02.204Z,99.90
2018-06-25T00:12:35.993Z,99.90
2018-06-25T00:15:09.911Z,99.90
2018-06-25T00:17:43.694Z,99.90
2018-06-25T00:20:17.389Z,99.90
2018-06-25T00:22:51.154Z,99.90
2018-06-25T00:25:25.419Z,99.90
2018-06-25T00:27:59.794Z,99.90
2018-06-25T00:30:33.564Z,99.90
2018-06-25T00:33:07.383Z,99.90
2018-06-25T00:35:41.102Z,99.90
2018-06-25T00:38:14.854Z,99.90
2018-06-25T00:40:48.914Z,99.90
2018-06-25T00:43:22.613Z,99.90
2018-06-25T00:45:56.384Z,99.90
2018-06-25T00:48:30.161Z,99.90
2018-06-25T00:51:03.981Z,99.90
2018-06-25T00:53:37.919Z,99.90
2018-06-25T00:56:11.774Z,99.90
2018-06-25T00:59:06.770Z,99.90
2018-06-25T01:01:40.433Z,99.90
2018-06-25T01:04:14.301Z,99.90
2018-06-25T01:06:48.070Z,99.90
2018-06-25T01:09:21.934Z,99.90
2018-06-25T01:11:55.705Z,99.90
2018-06-25T01:14:29.532Z,99.90
2018-06-25T01:17:03.302Z,99.90
2018-06-25T01:19:37.123Z,99.90
2018-06-25T01:22:12.034Z,99.90
2018-06-25T01:24:45.865Z,99.90
2018-06-25T01:27:19.737Z,99.90
2018-06-25T01:29:53.549Z,99.90
2018-06-25T01:32:27.380Z,99.90
2018-06-25T01:35:01.079Z,99.90
2018-06-25T01:37:35.020Z,99.90
2018-06-25T01:40:08.860Z,99.90
2018-06-25T01:42:42.842Z,99.90
2018-06-25T01:45:16.616Z,99.90
2018-06-25T01:47:50.465Z,99.90
2018-06-25T01:50:24.202Z,99.90
2018-06-25T01:52:58.080Z,99.90
2018-06-25T01:55:31.909Z,99.90
2018-06-25T01:58:05.885Z,99.90
2018-06-25T02:00:39.833Z,99.90
2018-06-25T02:03:13.689Z,99.90
2018-06-25T02:05:47.506Z,99.90
2018-06-25T02:08:21.393Z,99.90
2018-06-25T02:10:55.205Z,99.90
2018-06-25T02:13:29.078Z,99.90
2018-06-25T02:16:02.921Z,99.90
2018-06-25T02:18:36.747Z,99.90
2018-06-25T02:21:10.522Z,99.90
2018-06-25T02:23:44.400Z,99.90
2018-06-25T02:26:18.222Z,99.90
2018-06-25T02:28:52.148Z,99.90
2018-06-25T02:31:25.968Z,99.90
2018-06-25T02:33:59.969Z,99.90
2018-06-25T02:36:33.788Z,99.90
2018-06-25T02:39:11.769Z,99.90
2018-06-25T02:41:45.562Z,99.90
2018-06-25T02:44:19.334Z,99.90
2018-06-25T02:46:53.074Z,99.90
2018-06-25T02:49:26.851Z,99.90
2018-06-25T02:52:00.670Z,99.90
2018-06-25T02:54:34.432Z,99.90
2018-06-25T02:57:08.266Z,99.90
2018-06-25T02:59:42.089Z,99.90
2018-06-25T03:02:15.851Z,99.90
2018-06-25T03:04:49.584Z,99.90
2018-06-25T03:07:23.358Z,99.90
2018-06-25T03:09:57.146Z,99.90
2018-06-25T03:12:30.924Z,99.90
2018-06-25T03:15:04.798Z,99.90
2018-06-25T03:17:38.532Z,99.90
2018-06-25T03:20:12.517Z,99.90
2018-06-25T03:22:46.433Z,99.90
2018-06-25T03:25:20.217Z,99.90
2018-06-25T03:27:53.971Z,99.90
2018-06-25T03:30:27.726Z,99.90
2018-06-25T03:33:01.490Z,99.90
2018-06-25T03:35:35.271Z,99.90
2018-06-25T03:38:09.301Z,99.90
2018-06-25T03:40:43.160Z,99.90
2018-06-25T03:43:16.945Z,99.90
2018-06-25T03:45:50.710Z,99.90
2018-06-25T03:48:24.449Z,99.90
2018-06-25T03:50:58.244Z,99.90
2018-06-25T03:53:32.007Z,99.90
2018-06-25T03:56:05.768Z,99.90
2018-06-25T03:58:39.876Z,99.90
2018-06-25T04:01:13.615Z,99.90
2018-06-25T04:03:47.421Z,99.90
2018-06-25T04:06:21.207Z,99.90
2018-06-25T04:08:54.998Z,99.90
2018-06-25T04:11:28.724Z,99.90
2018-06-25T04:14:02.470Z,99.90
2018-06-25T04:16:36.277Z,99.90
2018-06-25T04:19:10.001Z,99.90
2018-06-25T04:21:43.753Z,99.90
2018-06-25T04:24:17.645Z,99.90
2018-06-25T04:26:51.420Z,99.90
2018-06-25T04:29:25.184Z,99.90
2018-06-25T04:31:57.605Z,99.90
2018-06-25T04:34:29.963Z,99.90
2018-06-25T04:37:02.317Z,99.90
2018-06-25T04:39:34.777Z,99.90
2018-06-25T04:42:07.341Z,99.90
2018-06-25T04:44:39.750Z,99.90
2018-06-25T04:47:12.121Z,99.90
2018-06-25T04:49:44.642Z,99.90
2018-06-25T04:52:17.033Z,99.90
2018-06-25T04:54:49.418Z,99.90
2018-06-25T04:57:21.776Z,99.90
2018-06-25T04:59:54.532Z,99.90
2018-06-25T05:02:26.912Z,99.90
2018-06-25T05:04:59.305Z,99.90
2018-06-25T05:07:31.688Z,99.90
2018-06-25T05:10:04.143Z,99.90
2018-06-25T05:12:36.582Z,99.90
2018-06-25T05:15:08.974Z,99.90
2018-06-25T05:17:41.380Z,99.90
2018-06-25T05:20:13.827Z,99.90
2018-06-25T05:22:46.147Z,99.90
2018-06-25T05:25:18.541Z,99.90
2018-06-25T05:27:50.933Z,99.90
2018-06-25T05:30:23.397Z,99.90
2018-06-25T05:32:55.799Z,99.90
2018-06-25T05:35:28.234Z,99.90
2018-06-25T05:38:00.579Z,99.90
2018-06-25T05:40:33.038Z,99.90
2018-06-25T05:43:05.437Z,99.90
2018-06-25T05:45:37.860Z,99.90
2018-06-25T05:48:10.268Z,99.90
2018-06-25T05:50:42.688Z,99.90
2018-06-25T05:53:15.059Z,99.90
2018-06-25T05:55:47.531Z,99.90
2018-06-25T05:58:19.945Z,99.90
2018-06-25T06:00:52.356Z,99.90
2018-06-25T06:03:24.802Z,99.90
2018-06-25T06:05:57.226Z,99.90
2018-06-25T06:08:29.637Z,99.90
2018-06-25T06:11:02.035Z,99.90
2018-06-25T06:13:34.411Z,99.90
2018-06-25T06:16:06.856Z,99.90
2018-06-25T06:18:39.214Z,99.90
2018-06-25T06:21:11.617Z,99.90
2018-06-25T06:23:44.002Z,99.90
2018-06-25T06:26:16.402Z,99.90
2018-06-25T06:28:48.777Z,99.90
2018-06-25T06:31:21.187Z,99.90
2018-06-25T06:33:53.560Z,99.90
2018-06-25T06:36:26.040Z,99.90
2018-06-25T06:38:58.389Z,99.90
2018-06-25T06:41:30.788Z,99.90
2018-06-25T06:44:03.185Z,99.90
2018-06-25T06:46:35.673Z,99.90
2018-06-25T06:49:08.057Z,99.90
2018-06-25T06:51:40.502Z,99.90
2018-06-25T06:54:12.892Z,99.90
2018-06-25T06:56:45.363Z,99.90
2018-06-25T06:59:17.825Z,99.90
2018-06-25T07:04:22.099Z,99.90
2018-06-25T07:06:54.528Z,99.90
2018-06-25T07:09:26.996Z,99.90
2018-06-25T07:11:59.468Z,99.90
2018-06-25T07:14:32.258Z,99.90
2018-06-25T07:17:04.974Z,99.90
2018-06-25T07:19:38.203Z,99.90
2018-06-25T07:22:10.730Z,99.90
2018-06-25T07:24:43.408Z,99.90
2018-06-25T07:27:15.872Z,99.90
2018-06-25T07:29:48.294Z,99.90
2018-06-25T07:32:20.753Z,99.90
2018-06-25T07:34:53.130Z,99.90
2018-06-25T07:37:25.553Z,99.90
2018-06-25T07:39:57.944Z,99.90
2018-06-25T07:42:30.368Z,99.90
2018-06-25T07:45:02.846Z,99.90
2018-06-25T07:47:35.332Z,99.90
2018-06-25T07:50:07.766Z,99.90
2018-06-25T07:52:49.353Z,99.90
2018-06-25T07:55:37.239Z,99.90
2018-06-25T07:58:10.530Z,99.90
2018-06-25T08:00:56.591Z,99.90
2018-06-25T08:03:43.261Z,99.90
2018-06-25T08:06:29.156Z,99.90
2018-06-25T08:09:16.943Z,99.90
2018-06-25T08:11:57.251Z,99.90
2018-06-25T08:14:41.545Z,99.90
2018-06-25T08:17:25.357Z,99.90
2018-06-25T08:20:14.073Z,99.90
2018-06-25T08:23:01.772Z,99.90
2018-06-25T08:25:37.674Z,99.90
2018-06-25T08:28:11.677Z,99.90
2018-06-25T08:30:45.145Z,99.90
2018-06-25T08:33:20.516Z,99.90
2018-06-25T08:35:55.392Z,99.70
2018-06-25T08:38:29.030Z,99.90
2018-06-25T08:41:03.415Z,99.90
2018-06-25T08:43:37.930Z,99.90
2018-06-25T08:46:12.975Z,99.40
2018-06-25T08:48:48.223Z,98.80
2018-06-25T08:51:22.266Z,98.70
2018-06-25T08:53:57.659Z,98.90
2018-06-25T08:56:31.557Z,98.90
2018-06-25T08:59:06.166Z,98.90
2018-06-25T09:01:41.675Z,98.20
2018-06-25T09:04:16.863Z,98.70
2018-06-25T09:06:51.562Z,98.10
2018-06-25T09:09:26.776Z,98.30
2018-06-25T09:12:01.568Z,98.10
2018-06-25T09:14:41.598Z,97.60
2018-06-25T09:17:17.068Z,99.30
2018-06-25T09:19:57.500Z,98.40
2018-06-25T09:22:33.497Z,97.50
2018-06-25T09:25:07.336Z,96.90
2018-06-25T09:27:46.784Z,97.60
2018-06-25T09:30:21.820Z,97.80
2018-06-25T09:32:56.535Z,98.90
2018-06-25T09:35:31.718Z,99.30
2018-06-25T09:38:06.188Z,99.90
2018-06-25T09:40:41.488Z,99.90
2018-06-25T09:43:16.282Z,99.90
2018-06-25T09:45:50.635Z,99.90
2018-06-25T09:48:24.804Z,99.90
2018-06-25T09:51:00.477Z,99.90
2018-06-25T09:53:35.108Z,99.90
2018-06-25T09:56:10.804Z,99.90
2018-06-25T09:58:47.310Z,99.90
2018-06-25T10:01:22.297Z,99.90
2018-06-25T10:03:59.750Z,99.90
2018-06-25T10:06:36.044Z,99.90
2018-06-25T10:09:16.115Z,99.90
2018-06-25T10:11:53.309Z,99.90
2018-06-25T10:14:31.260Z,99.90
2018-06-25T10:17:12.145Z,99.90
2018-06-25T10:19:49.452Z,99.90
2018-06-25T10:25:00.299Z,99.90
2018-06-25T10:27:35.943Z,99.90
2018-06-25T10:30:12.147Z,98.80
2018-06-25T10:32:46.608Z,98.70
2018-06-25T10:35:21.151Z,97.90
2018-06-25T10:37:54.927Z,97.20
2018-06-25T10:40:31.932Z,97.40
2018-06-25T10:43:06.556Z,97.50
2018-06-25T10:45:41.633Z,97.40
2018-06-25T10:48:16.603Z,97.20
2018-06-25T10:50:51.890Z,96.80
2018-06-25T10:53:26.513Z,96.70
2018-06-25T10:56:01.749Z,96.90
2018-06-25T10:58:36.365Z,96.40
2018-06-25T11:01:10.293Z,95.90
2018-06-25T11:03:47.213Z,95.50
2018-06-25T11:06:21.309Z,96.20
2018-06-25T11:08:55.978Z,95.50
2018-06-25T11:11:29.744Z,95.60
2018-06-25T11:14:04.449Z,95.90
2018-06-25T11:16:38.388Z,95.70
2018-06-25T11:19:11.977Z,95.10
2018-06-25T11:21:45.437Z,93.30
2018-06-25T11:24:18.373Z,94.00
2018-06-25T11:26:51.619Z,93.60
2018-06-25T11:29:24.356Z,93.40
2018-06-25T11:31:56.736Z,93.10
2018-06-25T11:34:29.169Z,93.60
2018-06-25T11:37:01.558Z,92.70
2018-06-25T11:39:33.974Z,92.00
2018-06-25T11:42:06.666Z,92.00
2018-06-25T11:44:39.078Z,92.00
2018-06-25T11:47:11.444Z,91.90
2018-06-25T11:49:43.885Z,92.90
2018-06-25T11:52:16.280Z,92.30
2018-06-25T11:54:48.703Z,91.50
2018-06-25T11:57:21.688Z,91.10
2018-06-25T11:59:54.256Z,91.50
2018-06-25T12:02:27.278Z,90.90
2018-06-25T12:05:00.091Z,90.30
2018-06-25T12:07:33.683Z,90.90
2018-06-25T12:10:06.477Z,90.70
2018-06-25T12:12:39.389Z,90.70
2018-06-25T12:15:12.040Z,90.30
2018-06-25T12:17:44.513Z,90.40
2018-06-25T12:20:16.978Z,90.30
2018-06-25T12:22:49.342Z,90.20
2018-06-25T12:25:21.726Z,89.80
2018-06-25T12:27:54.134Z,90.60
2018-06-25T12:30:26.501Z,90.10
2018-06-25T12:32:58.885Z,88.50
2018-06-25T12:35:31.248Z,87.70
2018-06-25T12:38:03.713Z,89.10
2018-06-25T12:40:36.064Z,87.50
2018-06-25T12:43:08.542Z,88.90
2018-06-25T12:45:40.925Z,87.30
2018-06-25T12:50:45.210Z,85.90
2018-06-25T12:53:17.586Z,86.20
2018-06-25T12:55:50.102Z,86.40
2018-06-25T12:58:22.534Z,86.40
2018-06-25T13:00:54.949Z,85.40
2018-06-25T13:03:27.299Z,84.60
2018-06-25T13:05:59.737Z,85.10
2018-06-25T13:08:32.161Z,84.50
2018-06-25T13:11:04.598Z,85.50
2018-06-25T13:13:37.036Z,85.00
2018-06-25T13:16:09.489Z,85.90
2018-06-25T13:18:41.860Z,84.40
2018-06-25T13:21:14.283Z,85.00
2018-06-25T13:23:46.702Z,84.40
2018-06-25T13:26:20.064Z,85.10
2018-06-25T13:28:52.506Z,84.20
2018-06-25T13:31:25.003Z,85.70
2018-06-25T13:33:57.404Z,84.80
2018-06-25T13:36:29.841Z,84.80
2018-06-25T13:39:02.259Z,85.70
2018-06-25T13:41:34.714Z,85.30
2018-06-25T13:44:07.262Z,84.10
2018-06-25T13:46:39.712Z,83.10
2018-06-25T13:49:12.574Z,82.80
2018-06-25T13:51:45.090Z,82.20
2018-06-25T13:54:17.697Z,80.40
2018-06-25T13:56:50.152Z,79.50
2018-06-25T13:59:22.572Z,77.10
2018-06-25T14:01:55.194Z,75.20
2018-06-25T14:04:27.644Z,76.70
2018-06-25T14:07:00.141Z,74.80
2018-06-25T14:09:33.323Z,72.90
2018-06-25T14:12:05.918Z,73.90
2018-06-25T14:14:41.060Z,73.90
2018-06-25T14:17:14.461Z,71.80
2018-06-25T14:19:47.007Z,71.80
2018-06-25T14:22:19.530Z,71.20
2018-06-25T14:24:55.884Z,68.00
2018-06-25T14:27:28.763Z,68.70
2018-06-25T14:30:01.358Z,66.50
2018-06-25T14:32:33.817Z,67.30
2018-06-25T14:35:20.554Z,66.70
2018-06-25T14:37:52.953Z,66.30
2018-06-25T14:40:25.403Z,67.50
2018-06-25T14:42:57.854Z,67.90
2018-06-25T14:45:30.320Z,68.90
2018-06-25T14:48:02.806Z,69.20
2018-06-25T14:50:36.151Z,69.70
2018-06-25T14:53:08.574Z,70.10
2018-06-25T14:55:41.316Z,69.80
2018-06-25T14:58:13.701Z,69.20
2018-06-25T15:00:46.049Z,70.00
2018-06-25T15:03:18.441Z,70.50
2018-06-25T15:05:50.900Z,71.60
2018-06-25T15:08:23.343Z,72.80
2018-06-25T15:10:55.727Z,72.70
2018-06-25T15:13:28.862Z,74.10
2018-06-25T15:16:01.249Z,73.60
2018-06-25T15:18:33.617Z,74.40
2018-06-25T15:21:06.528Z,75.00
2018-06-25T15:23:39.253Z,75.70
2018-06-25T15:26:11.693Z,76.70
2018-06-25T15:28:44.172Z,77.00
2018-06-25T15:31:16.583Z,77.50
2018-06-25T15:33:49.015Z,78.00
2018-06-25T15:36:21.413Z,78.70
2018-06-25T15:38:53.905Z,79.50
2018-06-25T15:41:26.314Z,79.70
2018-06-25T15:44:00.308Z,80.70
2018-06-25T15:46:33.054Z,81.10
2018-06-25T15:49:05.493Z,81.70
2018-06-25T15:51:37.941Z,82.30
2018-06-25T15:54:10.361Z,83.90
2018-06-25T15:56:42.793Z,83.80
2018-06-25T15:59:15.180Z,84.50
2018-06-25T16:01:47.592Z,84.90
2018-06-25T16:04:20.001Z,84.50
2018-06-25T16:06:54.755Z,85.40
2018-06-25T16:09:27.703Z,85.80
2018-06-25T16:12:00.093Z,85.40
2018-06-25T16:14:32.502Z,85.90
2018-06-25T16:17:04.836Z,85.90
2018-06-25T16:19:37.266Z,86.50
2018-06-25T16:22:09.647Z,87.20
2018-06-25T16:24:42.063Z,87.20
2018-06-25T16:27:14.519Z,86.70
2018-06-25T16:29:47.021Z,87.20
2018-06-25T16:32:19.441Z,87.60
2018-06-25T16:34:51.954Z,87.00
2018-06-25T16:37:24.372Z,88.00
2018-06-25T16:39:56.932Z,88.80
2018-06-25T16:42:29.451Z,89.80
2018-06-25T16:45:01.932Z,90.40
2018-06-25T16:47:34.428Z,91.10
2018-06-25T16:50:07.603Z,91.80
2018-06-25T16:52:40.042Z,91.90
2018-06-25T16:55:12.540Z,92.30
2018-06-25T16:57:44.993Z,92.30
2018-06-25T17:00:17.457Z,93.00
2018-06-25T17:02:49.871Z,93.50
2018-06-25T17:05:22.521Z,94.20
2018-06-25T17:07:54.991Z,94.90
2018-06-25T17:10:27.472Z,96.70
2018-06-25T17:12:59.940Z,98.10
2018-06-25T17:15:32.434Z,99.40
2018-06-25T17:18:04.868Z,99.30
2018-06-25T17:20:37.342Z,99.90
2018-06-25T17:23:09.740Z,99.90
2018-06-25T17:25:42.220Z,99.90
2018-06-25T17:28:14.654Z,99.90
2018-06-25T17:30:47.170Z,99.90
2018-06-25T17:33:19.668Z,99.90
2018-06-25T17:35:52.054Z,99.90
2018-06-25T17:38:24.436Z,99.90
2018-06-25T17:40:56.872Z,99.90
2018-06-25T17:43:29.385Z,99.90
2018-06-25T17:46:01.864Z,99.90
2018-06-25T17:48:34.340Z,99.90
2018-06-25T17:51:07.250Z,99.90
2018-06-25T17:53:39.644Z,99.90
2018-06-25T17:56:12.194Z,99.90
2018-06-25T17:58:44.632Z,99.90
2018-06-25T18:01:17.406Z,99.90
2018-06-25T18:03:50.071Z,99.90
2018-06-25T18:06:22.540Z,99.90
2018-06-25T18:08:58.195Z,99.90
2018-06-25T18:11:30.910Z,99.90
2018-06-25T18:14:03.599Z,99.90
2018-06-25T18:16:36.373Z,99.90
2018-06-25T18:19:08.863Z,99.90
2018-06-25T18:21:41.379Z,99.90
2018-06-25T18:24:13.868Z,99.90
2018-06-25T18:26:50.053Z,99.90
2018-06-25T18:29:22.474Z,99.90
2018-06-25T18:31:55.035Z,99.90
2018-06-25T18:34:27.452Z,99.90
2018-06-25T18:36:59.897Z,99.90
2018-06-25T18:39:32.318Z,99.90
2018-06-25T18:42:04.781Z,99.90
2018-06-25T18:44:37.218Z,99.90
2018-06-25T18:47:09.738Z,99.90
2018-06-25T18:49:42.143Z,99.90
2018-06-25T18:52:14.658Z,99.90
2018-06-25T18:54:47.120Z,99.90
2018-06-25T18:57:19.741Z,99.90
2018-06-25T18:59:52.352Z,99.90
2018-06-25T19:02:24.802Z,99.90
2018-06-25T19:04:57.233Z,99.90
2018-06-25T19:07:29.722Z,99.90
2018-06-25T19:10:02.174Z,99.90
2018-06-25T19:12:34.578Z,99.90
2018-06-25T19:15:07.569Z,99.90
2018-06-25T19:17:40.092Z,99.90
2018-06-25T19:20:12.489Z,99.90
2018-06-25T19:22:44.859Z,99.90
2018-06-25T19:25:17.279Z,99.90
2018-06-25T19:27:49.675Z,99.90
2018-06-25T19:30:22.116Z,99.90
2018-06-25T19:32:54.592Z,99.90
2018-06-25T19:35:27.073Z,99.90
2018-06-25T19:37:59.508Z,99.90
2018-06-25T19:40:31.991Z,99.90
2018-06-25T19:43:04.370Z,99.90
2018-06-25T19:45:36.825Z,99.90
2018-06-25T19:48:09.384Z,99.90
2018-06-25T19:50:41.765Z,99.90
2018-06-25T19:53:14.229Z,99.90
2018-06-25T19:55:46.662Z,99.90
2018-06-25T19:58:19.132Z,99.90
2018-06-25T20:00:51.531Z,99.90
2018-06-25T20:03:24.016Z,99.90
2018-06-25T20:05:56.457Z,99.90
2018-06-25T20:08:28.920Z,99.90
2018-06-25T20:11:01.492Z,99.90
2018-06-25T20:13:37.191Z,99.90
2018-06-25T20:16:10.327Z,99.90
2018-06-25T20:18:42.845Z,99.90
2018-06-25T20:21:15.872Z,99.90
2018-06-25T20:23:48.477Z,99.90
2018-06-25T20:26:21.153Z,99.90
2018-06-25T20:28:53.849Z,99.90
2018-06-25T20:31:26.883Z,99.90
2018-06-25T20:34:02.998Z,99.90
2018-06-25T20:36:35.776Z,99.90
2018-06-25T20:39:12.384Z,99.90
2018-06-25T20:41:44.908Z,99.90
2018-06-25T20:44:17.666Z,99.90
2018-06-25T20:46:50.114Z,99.90
2018-06-25T20:49:23.233Z,99.90
2018-06-25T20:51:55.648Z,99.90
2018-06-25T20:54:28.691Z,99.90
2018-06-25T20:57:01.280Z,99.90
2018-06-25T20:59:34.822Z,99.90
2018-06-25T21:02:09.928Z,99.90
2018-06-25T21:04:45.098Z,99.90
2018-06-25T21:07:20.602Z,99.90
2018-06-25T21:09:55.889Z,99.90
2018-06-25T21:12:29.902Z,99.90
2018-06-25T21:15:07.252Z,99.90
2018-06-25T21:17:44.899Z,99.90
2018-06-25T21:20:21.709Z,99.90
2018-06-25T21:22:55.751Z,99.90
2018-06-25T21:25:31.464Z,99.90
2018-06-25T21:28:05.756Z,99.90
2018-06-25T21:30:39.641Z,99.90
2018-06-25T21:33:14.745Z,99.90
2018-06-25T21:35:48.882Z,99.90
2018-06-25T21:38:24.871Z,99.90
2018-06-25T21:41:00.813Z,99.90
2018-06-25T21:43:35.757Z,99.90
2018-06-25T21:46:11.718Z,99.90
2018-06-25T21:48:46.756Z,99.90
2018-06-25T21:51:22.024Z,99.90
2018-06-25T21:53:55.892Z,99.90
2018-06-25T21:56:29.754Z,99.90
2018-06-25T21:59:03.582Z,99.90
2018-06-25T22:01:37.566Z,99.90
2018-06-25T22:04:11.333Z,99.90
2018-06-25T22:06:45.149Z,99.90
2018-06-25T22:09:18.937Z,99.90
2018-06-25T22:11:52.758Z,99.90
2018-06-25T22:14:26.784Z,99.90
2018-06-25T22:17:00.580Z,99.90
2018-06-25T22:19:34.347Z,99.90
2018-06-25T22:22:08.343Z,99.90
2018-06-25T22:24:42.029Z,99.90
2018-06-25T22:27:15.902Z,99.90
2018-06-25T22:29:49.785Z,99.90
2018-06-25T22:32:23.733Z,99.90
2018-06-25T22:34:57.561Z,99.90
2018-06-25T22:37:31.344Z,99.90
2018-06-25T22:40:05.109Z,99.90
2018-06-25T22:42:38.929Z,99.90
2018-06-25T22:45:12.669Z,99.90
2018-06-25T22:47:46.487Z,99.90
2018-06-25T22:50:20.167Z,99.90
2018-06-25T22:52:53.987Z,99.90
2018-06-25T22:55:36.182Z,99.90
2018-06-25T22:58:09.989Z,99.90
2018-06-25T23:00:43.820Z,99.90
2018-06-25T23:03:17.725Z,99.90
2018-06-25T23:05:51.462Z,99.90
2018-06-25T23:08:25.319Z,99.90
2018-06-25T23:10:59.108Z,99.90
2018-06-25T23:13:32.920Z,99.90
2018-06-25T23:16:06.824Z,99.90
2018-06-25T23:18:40.534Z,99.90
2018-06-25T23:21:14.295Z,99.90
2018-06-25T23:23:48.080Z,99.90
2018-06-25T23:26:21.842Z,99.90
2018-06-25T23:28:55.541Z,99.90
2018-06-25T23:31:29.366Z,99.90
2018-06-25T23:34:03.145Z,99.90
2018-06-25T23:36:36.918Z,99.90
2018-06-25T23:39:13.855Z,99.90
2018-06-25T23:41:47.713Z,99.90
2018-06-25T23:44:21.523Z,99.90
2018-06-25T23:46:55.663Z,99.90
2018-06-25T23:49:29.490Z,99.90
2018-06-25T23:52:03.284Z,99.90
2018-06-25T23:54:37.059Z,99.90
2018-06-25T23:57:10.772Z,99.90
2018-06-25T23:59:44.591Z,99.90
